sensor_id;sensor_type;location;lat;lon;timestamp;pressure;altitude;pressure_sealevel;temperature;humidity
58018;BME280;43810;50.860;19.226;2023-11-19T00:00:22;99082.81;;;1.04;100.00
58018;BME280;43810;50.860;19.226;2023-11-19T00:03:08;99083.84;;;1.03;100.00
58018;BME280;43810;50.860;19.226;2023-11-19T00:05:36;99082.56;;;1.06;100.00
58018;BME280;43810;50.860;19.226;2023-11-19T00:08:02;99080.72;;;1.06;100.00
58018;BME280;43810;50.860;19.226;2023-11-19T00:10:28;99073.16;;;1.10;100.00
58018;BME280;43810;50.860;19.226;2023-11-19T00:12:53;99074.44;;;1.07;100.00
58018;BME280;43810;50.860;19.226;2023-11-19T00:15:19;99078.59;;;1.03;100.00
58018;BME280;43810;50.860;19.226;2023-11-19T00:17:46;99070.22;;;1.01;100.00
58018;BME280;43810;50.860;19.226;2023-11-19T00:20:14;99076.75;;;0.98;100.00
58018;BME280;43810;50.860;19.226;2023-11-19T00:22:41;99076.47;;;0.95;100.00
58018;BME280;43810;50.860;19.226;2023-11-19T00:25:08;99080.13;;;0.94;100.00
58018;BME280;43810;50.860;19.226;2023-11-19T00:27:34;99060.28;;;0.98;100.00
58018;BME280;43810;50.860;19.226;2023-11-19T00:30:00;99063.44;;;1.00;100.00
58018;BME280;43810;50.860;19.226;2023-11-19T00:32:26;99064.97;;;1.01;100.00
58018;BME280;43810;50.860;19.226;2023-11-19T00:34:52;99067.59;;;0.96;100.00
58018;BME280;43810;50.860;19.226;2023-11-19T00:37:17;99082.75;;;0.94;100.00
58018;BME280;43810;50.860;19.226;2023-11-19T00:39:43;99080.41;;;0.97;100.00
58018;BME280;43810;50.860;19.226;2023-11-19T00:42:09;99083.28;;;1.01;100.00
58018;BME280;43810;50.860;19.226;2023-11-19T00:44:36;99068.94;;;1.04;100.00
58018;BME280;43810;50.860;19.226;2023-11-19T00:47:01;99056.88;;;1.03;100.00
58018;BME280;43810;50.860;19.226;2023-11-19T00:49:28;99044.00;;;0.91;100.00
58018;BME280;43810;50.860;19.226;2023-11-19T00:51:53;99046.13;;;0.94;100.00
58018;BME280;43810;50.860;19.226;2023-11-19T00:54:19;99040.34;;;0.92;100.00
58018;BME280;43810;50.860;19.226;2023-11-19T00:56:45;99042.44;;;0.90;100.00
58018;BME280;43810;50.860;19.226;2023-11-19T00:59:11;99042.97;;;0.92;100.00
58018;BME280;43810;50.860;19.226;2023-11-19T01:01:37;99036.69;;;0.88;100.00
58018;BME280;43810;50.860;19.226;2023-11-19T01:04:03;99038.75;;;0.86;100.00
58018;BME280;43810;50.860;19.226;2023-11-19T01:06:30;99046.88;;;0.89;100.00
58018;BME280;43810;50.860;19.226;2023-11-19T01:08:56;99029.88;;;0.92;100.00
58018;BME280;43810;50.860;19.226;2023-11-19T01:11:25;99036.41;;;0.89;100.00
58018;BME280;43810;50.860;19.226;2023-11-19T01:13:51;99028.56;;;0.89;100.00
58018;BME280;43810;50.860;19.226;2023-11-19T01:16:18;99026.47;;;0.91;100.00
58018;BME280;43810;50.860;19.226;2023-11-19T01:18:46;99031.19;;;0.89;100.00
58018;BME280;43810;50.860;19.226;2023-11-19T01:21:12;99023.06;;;0.86;100.00
58018;BME280;43810;50.860;19.226;2023-11-19T01:23:41;99018.88;;;0.85;100.00
58018;BME280;43810;50.860;19.226;2023-11-19T01:26:09;99014.69;;;0.84;100.00
58018;BME280;43810;50.860;19.226;2023-11-19T01:28:36;99012.34;;;0.87;100.00
58018;BME280;43810;50.860;19.226;2023-11-19T01:31:02;99010.78;;;0.86;100.00
58018;BME280;43810;50.860;19.226;2023-11-19T01:33:29;99004.75;;;0.86;100.00
58018;BME280;43810;50.860;19.226;2023-11-19T01:35:55;98993.97;;;0.77;100.00
58018;BME280;43810;50.860;19.226;2023-11-19T01:38:24;98986.66;;;0.74;100.00
58018;BME280;43810;50.860;19.226;2023-11-19T01:40:50;98988.44;;;0.69;100.00
58018;BME280;43810;50.860;19.226;2023-11-19T01:43:39;98987.41;;;0.70;100.00
58018;BME280;43810;50.860;19.226;2023-11-19T01:46:08;98987.66;;;0.68;100.00
58018;BME280;43810;50.860;19.226;2023-11-19T01:48:40;98982.66;;;0.67;100.00
58018;BME280;43810;50.860;19.226;2023-11-19T01:51:08;98984.50;;;0.66;100.00
58018;BME280;43810;50.860;19.226;2023-11-19T01:53:36;98973.81;;;0.73;100.00
58018;BME280;43810;50.860;19.226;2023-11-19T01:56:03;98980.09;;;0.72;100.00
58018;BME280;43810;50.860;19.226;2023-11-19T01:58:30;98970.97;;;0.74;100.00
58018;BME280;43810;50.860;19.226;2023-11-19T02:00:56;98962.06;;;0.75;100.00
58018;BME280;43810;50.860;19.226;2023-11-19T02:03:23;98962.88;;;0.76;100.00
58018;BME280;43810;50.860;19.226;2023-11-19T02:05:51;98953.44;;;0.75;100.00
58018;BME280;43810;50.860;19.226;2023-11-19T02:08:18;98944.03;;;0.74;100.00
58018;BME280;43810;50.860;19.226;2023-11-19T02:10:44;98934.56;;;0.68;100.00
58018;BME280;43810;50.860;19.226;2023-11-19T02:13:11;98926.47;;;0.64;100.00
58018;BME280;43810;50.860;19.226;2023-11-19T02:15:40;98924.06;;;0.52;100.00
58018;BME280;43810;50.860;19.226;2023-11-19T02:20:45;98908.34;;;0.47;100.00
58018;BME280;43810;50.860;19.226;2023-11-19T02:23:13;98906.22;;;0.39;100.00
58018;BME280;43810;50.860;19.226;2023-11-19T02:25:40;98902.81;;;0.39;100.00
58018;BME280;43810;50.860;19.226;2023-11-19T02:28:07;98889.16;;;0.32;100.00
58018;BME280;43810;50.860;19.226;2023-11-19T02:30:32;98897.28;;;0.35;100.00
58018;BME280;43810;50.860;19.226;2023-11-19T02:32:59;98894.94;;;0.34;100.00
58018;BME280;43810;50.860;19.226;2023-11-19T02:35:28;98881.31;;;0.26;100.00
58018;BME280;43810;50.860;19.226;2023-11-19T02:37:58;98873.19;;;0.23;100.00
58018;BME280;43810;50.860;19.226;2023-11-19T02:40:29;98860.59;;;0.15;100.00
58018;BME280;43810;50.860;19.226;2023-11-19T02:42:55;98862.19;;;0.21;100.00
58018;BME280;43810;50.860;19.226;2023-11-19T02:45:23;98859.09;;;0.24;100.00
58018;BME280;43810;50.860;19.226;2023-11-19T02:47:49;98843.16;;;0.25;100.00
58018;BME280;43810;50.860;19.226;2023-11-19T02:50:16;98839.78;;;0.30;100.00
58018;BME280;43810;50.860;19.226;2023-11-19T02:52:43;98832.75;;;0.31;100.00
58018;BME280;43810;50.860;19.226;2023-11-19T02:55:10;98830.38;;;0.29;100.00
58018;BME280;43810;50.860;19.226;2023-11-19T02:57:38;98824.63;;;0.27;100.00
58018;BME280;43810;50.860;19.226;2023-11-19T03:00:13;98817.31;;;0.29;100.00
58018;BME280;43810;50.860;19.226;2023-11-19T03:02:40;98809.72;;;0.27;100.00
58018;BME280;43810;50.860;19.226;2023-11-19T03:05:12;98797.66;;;0.16;100.00
58018;BME280;43810;50.860;19.226;2023-11-19T03:07:43;98800.78;;;0.13;100.00
58018;BME280;43810;50.860;19.226;2023-11-19T03:10:12;98793.44;;;0.10;100.00
58018;BME280;43810;50.860;19.226;2023-11-19T03:12:42;98801.31;;;0.15;100.00
58018;BME280;43810;50.860;19.226;2023-11-19T03:15:08;98799.72;;;0.14;100.00
58018;BME280;43810;50.860;19.226;2023-11-19T03:17:41;98810.44;;;0.13;100.00
58018;BME280;43810;50.860;19.226;2023-11-19T03:20:08;98815.91;;;0.11;100.00
58018;BME280;43810;50.860;19.226;2023-11-19T03:22:42;98818.56;;;0.16;100.00
58018;BME280;43810;50.860;19.226;2023-11-19T03:25:10;98813.09;;;0.18;100.00
58018;BME280;43810;50.860;19.226;2023-11-19T03:27:36;98817.53;;;0.17;100.00
58018;BME280;43810;50.860;19.226;2023-11-19T03:30:03;98816.75;;;0.22;100.00
58018;BME280;43810;50.860;19.226;2023-11-19T03:32:31;98798.19;;;0.23;100.00
58018;BME280;43810;50.860;19.226;2023-11-19T03:34:57;98809.97;;;0.26;100.00
58018;BME280;43810;50.860;19.226;2023-11-19T03:37:23;98815.22;;;0.31;100.00
58018;BME280;43810;50.860;19.226;2023-11-19T03:39:49;98793.00;;;0.34;100.00
58018;BME280;43810;50.860;19.226;2023-11-19T03:42:15;98784.41;;;0.38;100.00
58018;BME280;43810;50.860;19.226;2023-11-19T03:44:40;98782.59;;;0.39;100.00
58018;BME280;43810;50.860;19.226;2023-11-19T03:47:06;98778.91;;;0.35;100.00
58018;BME280;43810;50.860;19.226;2023-11-19T03:49:32;98775.75;;;0.33;100.00
58018;BME280;43810;50.860;19.226;2023-11-19T03:51:58;98776.81;;;0.37;100.00
58018;BME280;43810;50.860;19.226;2023-11-19T03:54:23;98773.97;;;0.38;100.00
58018;BME280;43810;50.860;19.226;2023-11-19T03:56:50;98756.69;;;0.37;100.00
58018;BME280;43810;50.860;19.226;2023-11-19T03:59:15;98765.31;;;0.33;100.00
58018;BME280;43810;50.860;19.226;2023-11-19T04:01:41;98743.88;;;0.31;100.00
58018;BME280;43810;50.860;19.226;2023-11-19T04:04:07;98750.66;;;0.26;100.00
58018;BME280;43810;50.860;19.226;2023-11-19T04:06:33;98743.63;;;0.27;100.00
58018;BME280;43810;50.860;19.226;2023-11-19T04:08:58;98737.09;;;0.30;100.00
58018;BME280;43810;50.860;19.226;2023-11-19T04:11:24;98719.59;;;0.30;100.00
58018;BME280;43810;50.860;19.226;2023-11-19T04:13:49;98720.38;;;0.31;100.00
58018;BME280;43810;50.860;19.226;2023-11-19T04:16:15;98711.72;;;0.25;100.00
58018;BME280;43810;50.860;19.226;2023-11-19T04:18:41;98705.44;;;0.21;100.00
58018;BME280;43810;50.860;19.226;2023-11-19T04:21:07;98701.00;;;0.21;100.00
58018;BME280;43810;50.860;19.226;2023-11-19T04:23:33;98696.28;;;0.23;100.00
58018;BME280;43810;50.860;19.226;2023-11-19T04:26:02;98692.66;;;0.24;100.00
58018;BME280;43810;50.860;19.226;2023-11-19T04:28:30;98673.28;;;0.20;100.00
58018;BME280;43810;50.860;19.226;2023-11-19T04:30:56;98681.13;;;0.20;100.00
58018;BME280;43810;50.860;19.226;2023-11-19T04:33:21;98689.75;;;0.21;100.00
58018;BME280;43810;50.860;19.226;2023-11-19T04:35:47;98700.75;;;0.28;100.00
58018;BME280;43810;50.860;19.226;2023-11-19T04:38:13;98696.56;;;0.32;100.00
58018;BME280;43810;50.860;19.226;2023-11-19T04:40:39;98685.88;;;0.34;100.00
58018;BME280;43810;50.860;19.226;2023-11-19T04:43:04;98678.56;;;0.41;100.00
58018;BME280;43810;50.860;19.226;2023-11-19T04:45:30;98679.88;;;0.48;100.00
58018;BME280;43810;50.860;19.226;2023-11-19T04:47:57;98669.41;;;0.43;100.00
58018;BME280;43810;50.860;19.226;2023-11-19T04:50:23;98674.63;;;0.43;100.00
58018;BME280;43810;50.860;19.226;2023-11-19T04:52:48;98664.47;;;0.42;100.00
58018;BME280;43810;50.860;19.226;2023-11-19T04:55:14;98662.09;;;0.45;100.00
58018;BME280;43810;50.860;19.226;2023-11-19T04:57:40;98663.94;;;0.40;100.00
58018;BME280;43810;50.860;19.226;2023-11-19T05:00:06;98656.88;;;0.40;100.00
58018;BME280;43810;50.860;19.226;2023-11-19T05:02:36;98648.50;;;0.43;100.00
58018;BME280;43810;50.860;19.226;2023-11-19T05:05:03;98649.81;;;0.36;100.00
58018;BME280;43810;50.860;19.226;2023-11-19T05:07:32;98654.25;;;0.35;100.00
58018;BME280;43810;50.860;19.226;2023-11-19T05:09:57;98657.91;;;0.34;100.00
58018;BME280;43810;50.860;19.226;2023-11-19T05:12:24;98656.34;;;0.38;100.00
58018;BME280;43810;50.860;19.226;2023-11-19T05:14:50;98648.78;;;0.42;100.00
58018;BME280;43810;50.860;19.226;2023-11-19T05:17:17;98643.03;;;0.40;100.00
58018;BME280;43810;50.860;19.226;2023-11-19T05:19:44;98632.56;;;0.45;100.00
58018;BME280;43810;50.860;19.226;2023-11-19T05:22:10;98621.88;;;0.41;100.00
58018;BME280;43810;50.860;19.226;2023-11-19T05:24:36;98626.56;;;0.44;100.00
58018;BME280;43810;50.860;19.226;2023-11-19T05:27:02;98609.06;;;0.40;100.00
58018;BME280;43810;50.860;19.226;2023-11-19T05:29:27;98599.88;;;0.32;100.00
58018;BME280;43810;50.860;19.226;2023-11-19T05:31:53;98607.47;;;0.29;100.00
58018;BME280;43810;50.860;19.226;2023-11-19T05:34:21;98603.03;;;0.39;100.00
58018;BME280;43810;50.860;19.226;2023-11-19T05:36:47;98595.19;;;0.39;100.00
58018;BME280;43810;50.860;19.226;2023-11-19T05:39:13;98603.56;;;0.41;100.00
58018;BME280;43810;50.860;19.226;2023-11-19T05:41:39;98599.91;;;0.37;100.00
58018;BME280;43810;50.860;19.226;2023-11-19T05:44:04;98596.00;;;0.40;100.00
58018;BME280;43810;50.860;19.226;2023-11-19T05:46:30;98604.88;;;0.39;100.00
58018;BME280;43810;50.860;19.226;2023-11-19T05:48:56;98597.28;;;0.37;100.00
58018;BME280;43810;50.860;19.226;2023-11-19T05:51:21;98591.03;;;0.28;100.00
58018;BME280;43810;50.860;19.226;2023-11-19T05:53:49;98584.22;;;0.27;100.00
58018;BME280;43810;50.860;19.226;2023-11-19T05:56:16;98588.91;;;0.25;100.00
58018;BME280;43810;50.860;19.226;2023-11-19T05:58:47;98584.50;;;0.31;100.00
58018;BME280;43810;50.860;19.226;2023-11-19T06:01:14;98595.19;;;0.34;100.00
58018;BME280;43810;50.860;19.226;2023-11-19T06:03:40;98593.38;;;0.35;100.00
58018;BME280;43810;50.860;19.226;2023-11-19T06:06:08;98587.38;;;0.39;100.00
58018;BME280;43810;50.860;19.226;2023-11-19T06:08:35;98589.19;;;0.34;100.00
58018;BME280;43810;50.860;19.226;2023-11-19T06:11:01;98584.47;;;0.25;100.00
58018;BME280;43810;50.860;19.226;2023-11-19T06:13:27;98584.22;;;0.22;100.00
58018;BME280;43810;50.860;19.226;2023-11-19T06:15:52;98596.47;;;0.21;100.00
58018;BME280;43810;50.860;19.226;2023-11-19T06:18:18;98592.06;;;0.27;100.00
58018;BME280;43810;50.860;19.226;2023-11-19T06:20:45;98595.69;;;0.21;100.00
58018;BME280;43810;50.860;19.226;2023-11-19T06:23:11;98590.75;;;0.30;100.00
58018;BME280;43810;50.860;19.226;2023-11-19T06:25:37;98592.56;;;0.34;100.00
58018;BME280;43810;50.860;19.226;2023-11-19T06:28:03;98587.34;;;0.34;100.00
58018;BME280;43810;50.860;19.226;2023-11-19T06:30:29;98569.56;;;0.31;100.00
58018;BME280;43810;50.860;19.226;2023-11-19T06:32:56;98565.94;;;0.37;100.00
58018;BME280;43810;50.860;19.226;2023-11-19T06:35:22;98563.31;;;0.37;100.00
58018;BME280;43810;50.860;19.226;2023-11-19T06:37:47;98562.00;;;0.40;100.00
58018;BME280;43810;50.860;19.226;2023-11-19T06:40:13;98563.06;;;0.39;100.00
58018;BME280;43810;50.860;19.226;2023-11-19T06:42:41;98563.31;;;0.42;100.00
58018;BME280;43810;50.860;19.226;2023-11-19T06:45:07;98560.16;;;0.45;100.00
58018;BME280;43810;50.860;19.226;2023-11-19T06:47:33;98561.47;;;0.43;100.00
58018;BME280;43810;50.860;19.226;2023-11-19T06:49:58;98543.72;;;0.50;100.00
58018;BME280;43810;50.860;19.226;2023-11-19T06:52:24;98547.63;;;0.52;100.00
58018;BME280;43810;50.860;19.226;2023-11-19T06:54:50;98542.38;;;0.57;100.00
58018;BME280;43810;50.860;19.226;2023-11-19T06:57:16;98532.97;;;0.56;100.00
58018;BME280;43810;50.860;19.226;2023-11-19T06:59:42;98529.34;;;0.52;100.00
58018;BME280;43810;50.860;19.226;2023-11-19T07:02:08;98530.38;;;0.51;100.00
58018;BME280;43810;50.860;19.226;2023-11-19T07:04:34;98525.94;;;0.52;100.00
58018;BME280;43810;50.860;19.226;2023-11-19T07:07:00;98517.81;;;0.58;100.00
58018;BME280;43810;50.860;19.226;2023-11-19T07:09:26;98506.03;;;0.71;100.00
58018;BME280;43810;50.860;19.226;2023-11-19T07:11:52;98509.88;;;0.89;100.00
58018;BME280;43810;50.860;19.226;2023-11-19T07:14:19;98505.69;;;0.93;100.00
58018;BME280;43810;50.860;19.226;2023-11-19T07:16:45;98494.22;;;0.84;100.00
58018;BME280;43810;50.860;19.226;2023-11-19T07:19:11;98475.66;;;0.85;100.00
58018;BME280;43810;50.860;19.226;2023-11-19T07:21:41;98487.66;;;0.96;100.00
58018;BME280;43810;50.860;19.226;2023-11-19T07:24:09;98486.81;;;1.06;100.00
58018;BME280;43810;50.860;19.226;2023-11-19T07:26:36;98492.06;;;1.01;100.00
58018;BME280;43810;50.860;19.226;2023-11-19T07:29:03;98499.59;;;1.13;100.00
58018;BME280;43810;50.860;19.226;2023-11-19T07:31:28;98488.34;;;1.12;100.00
58018;BME280;43810;50.860;19.226;2023-11-19T07:33:54;98483.63;;;1.14;100.00
58018;BME280;43810;50.860;19.226;2023-11-19T07:36:20;98481.00;;;1.19;100.00
58018;BME280;43810;50.860;19.226;2023-11-19T07:38:46;98477.06;;;1.22;100.00
58018;BME280;43810;50.860;19.226;2023-11-19T07:41:13;98473.09;;;1.29;100.00
58018;BME280;43810;50.860;19.226;2023-11-19T07:43:39;98452.34;;;1.43;100.00
58018;BME280;43810;50.860;19.226;2023-11-19T07:46:10;98450.00;;;1.42;100.00
58018;BME280;43810;50.860;19.226;2023-11-19T07:48:36;98449.94;;;1.47;100.00
58018;BME280;43810;50.860;19.226;2023-11-19T07:51:02;98447.34;;;1.47;100.00
58018;BME280;43810;50.860;19.226;2023-11-19T07:53:27;98437.38;;;1.49;100.00
58018;BME280;43810;50.860;19.226;2023-11-19T07:55:53;98425.84;;;1.50;100.00
58018;BME280;43810;50.860;19.226;2023-11-19T07:58:19;98418.00;;;1.50;100.00
58018;BME280;43810;50.860;19.226;2023-11-19T08:00:45;98414.50;;;1.64;100.00
58018;BME280;43810;50.860;19.226;2023-11-19T08:03:10;98416.31;;;1.69;100.00
58018;BME280;43810;50.860;19.226;2023-11-19T08:05:37;98423.66;;;1.67;100.00
58018;BME280;43810;50.860;19.226;2023-11-19T08:08:02;98420.94;;;1.77;100.00
58018;BME280;43810;50.860;19.226;2023-11-19T08:10:28;98425.75;;;1.65;99.94
58018;BME280;43810;50.860;19.226;2023-11-19T08:12:54;98418.34;;;1.77;100.00
58018;BME280;43810;50.860;19.226;2023-11-19T08:15:20;98409.50;;;1.68;100.00
58018;BME280;43810;50.860;19.226;2023-11-19T08:17:46;98426.78;;;1.69;100.00
58018;BME280;43810;50.860;19.226;2023-11-19T08:20:12;98429.63;;;1.72;100.00
58018;BME280;43810;50.860;19.226;2023-11-19T08:22:38;98420.91;;;1.82;100.00
58018;BME280;43810;50.860;19.226;2023-11-19T08:25:05;98414.38;;;1.80;100.00
58018;BME280;43810;50.860;19.226;2023-11-19T08:27:32;98404.13;;;1.83;100.00
58018;BME280;43810;50.860;19.226;2023-11-19T08:30:05;98403.50;;;1.96;100.00
58018;BME280;43810;50.860;19.226;2023-11-19T08:32:32;98390.94;;;1.93;100.00
58018;BME280;43810;50.860;19.226;2023-11-19T08:34:58;98397.09;;;2.07;99.90
58018;BME280;43810;50.860;19.226;2023-11-19T08:37:23;98389.78;;;2.04;99.85
58018;BME280;43810;50.860;19.226;2023-11-19T08:39:52;98391.84;;;2.07;100.00
58018;BME280;43810;50.860;19.226;2023-11-19T08:42:17;98389.00;;;2.04;99.74
58018;BME280;43810;50.860;19.226;2023-11-19T08:44:43;98365.13;;;2.05;99.98
58018;BME280;43810;50.860;19.226;2023-11-19T08:47:11;98362.53;;;2.05;99.58
58018;BME280;43810;50.860;19.226;2023-11-19T08:49:36;98365.09;;;2.11;100.00
58018;BME280;43810;50.860;19.226;2023-11-19T08:52:02;98372.06;;;2.20;99.80
58018;BME280;43810;50.860;19.226;2023-11-19T08:54:28;98370.88;;;2.36;99.13
58018;BME280;43810;50.860;19.226;2023-11-19T08:56:53;98359.19;;;2.48;99.98
58018;BME280;43810;50.860;19.226;2023-11-19T08:59:19;98348.75;;;2.42;98.63
58018;BME280;43810;50.860;19.226;2023-11-19T09:01:45;98350.16;;;2.35;98.76
58018;BME280;43810;50.860;19.226;2023-11-19T09:04:11;98348.84;;;2.14;99.12
58018;BME280;43810;50.860;19.226;2023-11-19T09:06:36;98340.19;;;2.13;99.50
58018;BME280;43810;50.860;19.226;2023-11-19T09:09:02;98335.66;;;2.19;100.00
58018;BME280;43810;50.860;19.226;2023-11-19T09:11:30;98323.34;;;2.19;100.00
58018;BME280;43810;50.860;19.226;2023-11-19T09:13:57;98328.66;;;2.38;100.00
58018;BME280;43810;50.860;19.226;2023-11-19T09:16:22;98310.44;;;2.65;100.00
58018;BME280;43810;50.860;19.226;2023-11-19T09:18:48;98304.03;;;2.95;98.33
58018;BME280;43810;50.860;19.226;2023-11-19T09:21:14;98309.09;;;3.24;98.16
58018;BME280;43810;50.860;19.226;2023-11-19T09:23:39;98303.84;;;3.24;97.24
58018;BME280;43810;50.860;19.226;2023-11-19T09:26:06;98302.84;;;3.20;96.18
58018;BME280;43810;50.860;19.226;2023-11-19T09:28:32;98294.50;;;3.32;96.61
58018;BME280;43810;50.860;19.226;2023-11-19T09:30:57;98281.69;;;3.30;96.49
58018;BME280;43810;50.860;19.226;2023-11-19T09:33:24;98281.69;;;3.30;94.67
58018;BME280;43810;50.860;19.226;2023-11-19T09:35:50;98277.53;;;3.43;96.02
58018;BME280;43810;50.860;19.226;2023-11-19T09:38:16;98277.38;;;3.67;96.45
58018;BME280;43810;50.860;19.226;2023-11-19T09:40:42;98281.59;;;3.81;93.61
58018;BME280;43810;50.860;19.226;2023-11-19T09:43:09;98273.81;;;4.04;93.85
58018;BME280;43810;50.860;19.226;2023-11-19T09:45:47;98274.28;;;4.06;92.03
58018;BME280;43810;50.860;19.226;2023-11-19T09:48:16;98273.81;;;4.04;92.70
58018;BME280;43810;50.860;19.226;2023-11-19T09:50:45;98259.22;;;4.11;93.35
58018;BME280;43810;50.860;19.226;2023-11-19T09:53:12;98250.94;;;4.04;92.06
58018;BME280;43810;50.860;19.226;2023-11-19T09:55:40;98257.25;;;4.17;92.05
58018;BME280;43810;50.860;19.226;2023-11-19T09:58:06;98246.72;;;4.31;91.75
58018;BME280;43810;50.860;19.226;2023-11-19T10:00:33;98242.38;;;4.48;90.56
58018;BME280;43810;50.860;19.226;2023-11-19T10:03:00;98230.22;;;4.52;88.16
58018;BME280;43810;50.860;19.226;2023-11-19T10:05:26;98221.75;;;4.42;90.85
58018;BME280;43810;50.860;19.226;2023-11-19T10:07:52;98213.03;;;4.33;90.83
58018;BME280;43810;50.860;19.226;2023-11-19T10:10:18;98218.59;;;4.17;90.61
58018;BME280;43810;50.860;19.226;2023-11-19T10:12:47;98216.94;;;4.21;90.38
58018;BME280;43810;50.860;19.226;2023-11-19T10:15:20;98197.19;;;4.10;92.18
58018;BME280;43810;50.860;19.226;2023-11-19T10:17:49;98200.19;;;4.04;93.73
58018;BME280;43810;50.860;19.226;2023-11-19T10:20:15;98192.13;;;4.00;94.22
58018;BME280;43810;50.860;19.226;2023-11-19T10:22:41;98189.91;;;3.80;95.45
58018;BME280;43810;50.860;19.226;2023-11-19T10:25:26;98180.19;;;3.80;96.09
58018;BME280;43810;50.860;19.226;2023-11-19T10:27:53;98168.91;;;3.52;96.87
58018;BME280;43810;50.860;19.226;2023-11-19T10:30:24;98170.03;;;3.33;97.45
58018;BME280;43810;50.860;19.226;2023-11-19T10:33:09;98156.63;;;3.21;99.61
58018;BME280;43810;50.860;19.226;2023-11-19T10:35:51;98144.41;;;2.97;100.00
58018;BME280;43810;50.860;19.226;2023-11-19T10:38:19;98141.72;;;3.02;100.00
58018;BME280;43810;50.860;19.226;2023-11-19T10:40:45;98132.09;;;2.98;100.00
58018;BME280;43810;50.860;19.226;2023-11-19T10:43:12;98119.44;;;2.86;100.00
58018;BME280;43810;50.860;19.226;2023-11-19T10:45:38;98120.03;;;2.83;100.00
58018;BME280;43810;50.860;19.226;2023-11-19T10:48:05;98112.13;;;2.69;100.00
58018;BME280;43810;50.860;19.226;2023-11-19T10:50:34;98114.75;;;2.51;100.00
58018;BME280;43810;50.860;19.226;2023-11-19T10:53:03;98110.13;;;2.48;100.00
58018;BME280;43810;50.860;19.226;2023-11-19T10:55:30;98103.59;;;2.45;100.00
58018;BME280;43810;50.860;19.226;2023-11-19T10:58:01;98094.03;;;2.35;100.00
58018;BME280;43810;50.860;19.226;2023-11-19T11:00:54;98094.50;;;2.24;100.00
58018;BME280;43810;50.860;19.226;2023-11-19T11:03:20;98088.06;;;1.97;100.00
58018;BME280;43810;50.860;19.226;2023-11-19T11:05:47;98089.31;;;1.81;100.00
58018;BME280;43810;50.860;19.226;2023-11-19T11:08:13;98088.66;;;1.70;100.00
58018;BME280;43810;50.860;19.226;2023-11-19T11:10:43;98089.59;;;1.61;100.00
58018;BME280;43810;50.860;19.226;2023-11-19T11:13:10;98091.28;;;1.52;100.00
58018;BME280;43810;50.860;19.226;2023-11-19T11:15:37;98089.44;;;1.52;100.00
58018;BME280;43810;50.860;19.226;2023-11-19T11:18:06;98077.25;;;1.43;100.00
58018;BME280;43810;50.860;19.226;2023-11-19T11:20:33;98069.81;;;1.31;100.00
58018;BME280;43810;50.860;19.226;2023-11-19T11:28:58;98057.41;;;1.18;100.00
58018;BME280;43810;50.860;19.226;2023-11-19T11:34:19;98032.53;;;1.20;100.00
58018;BME280;43810;50.860;19.226;2023-11-19T11:39:36;98029.13;;;1.20;100.00
58018;BME280;43810;50.860;19.226;2023-11-19T11:45:03;98026.09;;;1.31;100.00
58018;BME280;43810;50.860;19.226;2023-11-19T11:50:18;98016.84;;;1.39;100.00
58018;BME280;43810;50.860;19.226;2023-11-19T11:57:51;98002.47;;;1.36;100.00
58018;BME280;43810;50.860;19.226;2023-11-19T12:03:01;97991.63;;;1.24;100.00
58018;BME280;43810;50.860;19.226;2023-11-19T12:05:28;97991.75;;;1.14;100.00
58018;BME280;43810;50.860;19.226;2023-11-19T12:07:55;97994.59;;;1.18;100.00
58018;BME280;43810;50.860;19.226;2023-11-19T12:10:24;97987.38;;;1.10;100.00
58018;BME280;43810;50.860;19.226;2023-11-19T12:12:52;97969.28;;;1.13;100.00
58018;BME280;43810;50.860;19.226;2023-11-19T12:15:18;97970.63;;;1.11;100.00
58018;BME280;43810;50.860;19.226;2023-11-19T12:17:50;97966.25;;;1.06;100.00
58018;BME280;43810;50.860;19.226;2023-11-19T12:20:18;97968.44;;;0.99;100.00
58018;BME280;43810;50.860;19.226;2023-11-19T12:22:45;97965.22;;;1.02;100.00
58018;BME280;43810;50.860;19.226;2023-11-19T12:25:12;97952.16;;;1.02;100.00
58018;BME280;43810;50.860;19.226;2023-11-19T12:27:43;97947.44;;;1.04;100.00
58018;BME280;43810;50.860;19.226;2023-11-19T12:30:10;97944.81;;;1.04;100.00
58018;BME280;43810;50.860;19.226;2023-11-19T12:32:43;97943.19;;;1.08;100.00
58018;BME280;43810;50.860;19.226;2023-11-19T12:35:10;97934.56;;;1.08;100.00
58018;BME280;43810;50.860;19.226;2023-11-19T12:37:43;97935.84;;;1.10;100.00
58018;BME280;43810;50.860;19.226;2023-11-19T12:40:17;97938.53;;;1.05;100.00
58018;BME280;43810;50.860;19.226;2023-11-19T12:42:47;97927.22;;;1.10;100.00
58018;BME280;43810;50.860;19.226;2023-11-19T12:45:13;97921.78;;;1.06;100.00
58018;BME280;43810;50.860;19.226;2023-11-19T12:47:40;97922.00;;;1.10;100.00
58018;BME280;43810;50.860;19.226;2023-11-19T12:50:07;97921.00;;;1.06;100.00
58018;BME280;43810;50.860;19.226;2023-11-19T12:52:37;97928.06;;;1.05;100.00
58018;BME280;43810;50.860;19.226;2023-11-19T12:57:48;97913.78;;;0.97;100.00
58018;BME280;43810;50.860;19.226;2023-11-19T13:00:21;97908.75;;;1.01;100.00
58018;BME280;43810;50.860;19.226;2023-11-19T13:02:52;97908.81;;;0.96;100.00
58018;BME280;43810;50.860;19.226;2023-11-19T13:05:32;97907.97;;;1.00;100.00
58018;BME280;43810;50.860;19.226;2023-11-19T13:08:08;97910.53;;;1.06;100.00
58018;BME280;43810;50.860;19.226;2023-11-19T13:13:16;97902.47;;;1.02;100.00
58018;BME280;43810;50.860;19.226;2023-11-19T13:15:42;97893.56;;;1.03;100.00
58018;BME280;43810;50.860;19.226;2023-11-19T13:18:10;97905.53;;;1.09;100.00
58018;BME280;43810;50.860;19.226;2023-11-19T13:20:36;97899.69;;;1.12;100.00
58018;BME280;43810;50.860;19.226;2023-11-19T13:23:03;97898.91;;;1.12;100.00